sensor_id;sensor_type;location;lat;lon;timestamp;temperature;humidity
37158;DHT22;23050;51.776;22.638;2023-09-19T00:00:34;17.30;99.90
37158;DHT22;23050;51.776;22.638;2023-09-19T00:03:01;17.30;99.90
37158;DHT22;23050;51.776;22.638;2023-09-19T00:05:33;17.30;99.90
37158;DHT22;23050;51.776;22.638;2023-09-19T00:08:01;17.20;99.90
37158;DHT22;23050;51.776;22.638;2023-09-19T00:10:29;17.20;99.90
37158;DHT22;23050;51.776;22.638;2023-09-19T00:13:01;17.20;99.90
37158;DHT22;23050;51.776;22.638;2023-09-19T00:15:36;17.20;99.90
37158;DHT22;23050;51.776;22.638;2023-09-19T00:18:03;17.20;99.90
37158;DHT22;23050;51.776;22.638;2023-09-19T00:20:31;17.20;99.90
37158;DHT22;23050;51.776;22.638;2023-09-19T00:22:56;17.10;99.90
37158;DHT22;23050;51.776;22.638;2023-09-19T00:25:27;17.10;99.90
37158;DHT22;23050;51.776;22.638;2023-09-19T00:27:54;17.10;99.90
37158;DHT22;23050;51.776;22.638;2023-09-19T00:30:23;17.10;99.90
37158;DHT22;23050;51.776;22.638;2023-09-19T00:32:50;17.10;99.90
37158;DHT22;23050;51.776;22.638;2023-09-19T00:35:22;17.10;99.90
37158;DHT22;23050;51.776;22.638;2023-09-19T00:37:51;17.10;99.90
37158;DHT22;23050;51.776;22.638;2023-09-19T00:40:17;17.00;99.90
37158;DHT22;23050;51.776;22.638;2023-09-19T00:42:47;17.00;99.90
37158;DHT22;23050;51.776;22.638;2023-09-19T00:45:14;17.00;99.90
37158;DHT22;23050;51.776;22.638;2023-09-19T00:47:43;17.00;99.90
37158;DHT22;23050;51.776;22.638;2023-09-19T00:50:10;17.00;99.90
37158;DHT22;23050;51.776;22.638;2023-09-19T00:52:37;17.10;99.90
37158;DHT22;23050;51.776;22.638;2023-09-19T00:55:07;17.10;99.90
37158;DHT22;23050;51.776;22.638;2023-09-19T00:57:34;17.10;99.90
37158;DHT22;23050;51.776;22.638;2023-09-19T01:00:03;17.10;99.90
37158;DHT22;23050;51.776;22.638;2023-09-19T01:02:34;17.10;99.90
37158;DHT22;23050;51.776;22.638;2023-09-19T01:05:00;17.10;99.90
37158;DHT22;23050;51.776;22.638;2023-09-19T01:07:27;17.00;99.90
37158;DHT22;23050;51.776;22.638;2023-09-19T01:09:56;17.00;99.90
37158;DHT22;23050;51.776;22.638;2023-09-19T01:15:28;17.00;99.90
37158;DHT22;23050;51.776;22.638;2023-09-19T01:18:27;17.00;99.90
37158;DHT22;23050;51.776;22.638;2023-09-19T01:21:02;17.00;99.90
37158;DHT22;23050;51.776;22.638;2023-09-19T01:32:03;16.70;99.90
37158;DHT22;23050;51.776;22.638;2023-09-19T01:34:50;16.70;99.90
37158;DHT22;23050;51.776;22.638;2023-09-19T01:37:20;16.70;99.90
37158;DHT22;23050;51.776;22.638;2023-09-19T01:44:59;16.60;99.90
37158;DHT22;23050;51.776;22.638;2023-09-19T01:47:37;16.60;99.90
37158;DHT22;23050;51.776;22.638;2023-09-19T01:50:32;16.50;99.90
37158;DHT22;23050;51.776;22.638;2023-09-19T01:53:07;16.40;99.90
37158;DHT22;23050;51.776;22.638;2023-09-19T01:55:43;16.40;99.90
37158;DHT22;23050;51.776;22.638;2023-09-19T01:58:25;16.40;99.90
37158;DHT22;23050;51.776;22.638;2023-09-19T02:00:54;16.40;99.90
37158;DHT22;23050;51.776;22.638;2023-09-19T02:03:21;16.40;99.90
37158;DHT22;23050;51.776;22.638;2023-09-19T02:05:52;16.40;99.90
37158;DHT22;23050;51.776;22.638;2023-09-19T02:08:20;16.40;99.90
37158;DHT22;23050;51.776;22.638;2023-09-19T02:10:46;16.30;99.90
37158;DHT22;23050;51.776;22.638;2023-09-19T02:13:19;16.30;99.90
37158;DHT22;23050;51.776;22.638;2023-09-19T02:15:45;16.30;99.90
37158;DHT22;23050;51.776;22.638;2023-09-19T02:18:12;16.20;99.90
37158;DHT22;23050;51.776;22.638;2023-09-19T02:20:38;16.20;99.90
37158;DHT22;23050;51.776;22.638;2023-09-19T02:23:04;16.20;99.90
37158;DHT22;23050;51.776;22.638;2023-09-19T02:25:30;16.20;99.90
37158;DHT22;23050;51.776;22.638;2023-09-19T02:27:57;16.20;99.90
37158;DHT22;23050;51.776;22.638;2023-09-19T02:30:24;16.10;99.90
37158;DHT22;23050;51.776;22.638;2023-09-19T02:32:55;16.10;99.90
37158;DHT22;23050;51.776;22.638;2023-09-19T02:35:21;16.10;99.90
37158;DHT22;23050;51.776;22.638;2023-09-19T02:37:48;16.10;99.90
37158;DHT22;23050;51.776;22.638;2023-09-19T02:40:14;16.10;99.90
37158;DHT22;23050;51.776;22.638;2023-09-19T02:42:53;16.10;99.90
37158;DHT22;23050;51.776;22.638;2023-09-19T02:45:20;16.00;99.90
37158;DHT22;23050;51.776;22.638;2023-09-19T02:47:46;16.10;99.90
37158;DHT22;23050;51.776;22.638;2023-09-19T02:50:12;16.00;99.90
37158;DHT22;23050;51.776;22.638;2023-09-19T02:52:44;16.10;99.90
37158;DHT22;23050;51.776;22.638;2023-09-19T02:55:12;16.00;99.90
37158;DHT22;23050;51.776;22.638;2023-09-19T02:57:39;16.00;99.90
37158;DHT22;23050;51.776;22.638;2023-09-19T03:00:08;16.00;99.90
37158;DHT22;23050;51.776;22.638;2023-09-19T03:02:37;16.00;99.90
37158;DHT22;23050;51.776;22.638;2023-09-19T03:05:05;16.00;99.90
37158;DHT22;23050;51.776;22.638;2023-09-19T03:07:32;16.00;99.90
37158;DHT22;23050;51.776;22.638;2023-09-19T03:09:57;16.00;99.90
37158;DHT22;23050;51.776;22.638;2023-09-19T03:12:23;16.00;99.90
37158;DHT22;23050;51.776;22.638;2023-09-19T03:14:49;16.00;99.90
37158;DHT22;23050;51.776;22.638;2023-09-19T03:17:15;15.90;99.90
37158;DHT22;23050;51.776;22.638;2023-09-19T03:19:41;15.90;99.90
37158;DHT22;23050;51.776;22.638;2023-09-19T03:22:07;15.90;99.90
37158;DHT22;23050;51.776;22.638;2023-09-19T03:24:33;15.90;99.90
37158;DHT22;23050;51.776;22.638;2023-09-19T03:26:59;15.90;99.90
37158;DHT22;23050;51.776;22.638;2023-09-19T03:29:25;15.90;99.90
37158;DHT22;23050;51.776;22.638;2023-09-19T03:31:51;15.90;99.90
37158;DHT22;23050;51.776;22.638;2023-09-19T03:34:17;15.90;99.90
37158;DHT22;23050;51.776;22.638;2023-09-19T03:36:42;15.90;99.90
37158;DHT22;23050;51.776;22.638;2023-09-19T03:39:08;15.90;99.90
37158;DHT22;23050;51.776;22.638;2023-09-19T03:41:34;15.80;99.90
37158;DHT22;23050;51.776;22.638;2023-09-19T03:44:02;15.80;99.90
37158;DHT22;23050;51.776;22.638;2023-09-19T03:46:28;15.80;99.90
37158;DHT22;23050;51.776;22.638;2023-09-19T03:48:55;15.80;99.90
37158;DHT22;23050;51.776;22.638;2023-09-19T03:51:21;15.80;99.90
37158;DHT22;23050;51.776;22.638;2023-09-19T03:53:47;15.80;99.90
37158;DHT22;23050;51.776;22.638;2023-09-19T03:56:14;15.90;99.90
37158;DHT22;23050;51.776;22.638;2023-09-19T03:58:40;15.90;99.90
37158;DHT22;23050;51.776;22.638;2023-09-19T04:01:06;15.90;99.90
37158;DHT22;23050;51.776;22.638;2023-09-19T04:03:34;15.90;99.90
37158;DHT22;23050;51.776;22.638;2023-09-19T04:06:01;15.90;99.90
37158;DHT22;23050;51.776;22.638;2023-09-19T04:08:27;15.90;99.90
37158;DHT22;23050;51.776;22.638;2023-09-19T04:10:52;15.80;99.90
37158;DHT22;23050;51.776;22.638;2023-09-19T04:13:18;15.80;99.90
37158;DHT22;23050;51.776;22.638;2023-09-19T04:15:44;15.80;99.90
37158;DHT22;23050;51.776;22.638;2023-09-19T04:18:11;15.80;99.90
37158;DHT22;23050;51.776;22.638;2023-09-19T04:20:37;15.80;99.90
37158;DHT22;23050;51.776;22.638;2023-09-19T04:23:03;15.80;99.90
37158;DHT22;23050;51.776;22.638;2023-09-19T04:25:30;15.80;99.90
37158;DHT22;23050;51.776;22.638;2023-09-19T04:27:56;15.80;99.90
37158;DHT22;23050;51.776;22.638;2023-09-19T04:30:21;15.80;99.90
37158;DHT22;23050;51.776;22.638;2023-09-19T04:32:47;15.80;99.90
37158;DHT22;23050;51.776;22.638;2023-09-19T04:35:16;15.90;99.90
37158;DHT22;23050;51.776;22.638;2023-09-19T04:37:41;15.90;99.90
37158;DHT22;23050;51.776;22.638;2023-09-19T04:40:08;15.90;99.90
37158;DHT22;23050;51.776;22.638;2023-09-19T04:42:39;16.00;99.90
37158;DHT22;23050;51.776;22.638;2023-09-19T04:45:05;16.00;99.90
37158;DHT22;23050;51.776;22.638;2023-09-19T04:47:31;16.10;99.90
37158;DHT22;23050;51.776;22.638;2023-09-19T04:49:57;16.10;99.90
37158;DHT22;23050;51.776;22.638;2023-09-19T04:52:24;16.20;99.90
37158;DHT22;23050;51.776;22.638;2023-09-19T04:54:50;16.20;99.90
37158;DHT22;23050;51.776;22.638;2023-09-19T04:57:15;16.40;99.90
37158;DHT22;23050;51.776;22.638;2023-09-19T04:59:41;16.40;99.90
37158;DHT22;23050;51.776;22.638;2023-09-19T05:02:07;16.40;99.90
37158;DHT22;23050;51.776;22.638;2023-09-19T05:04:37;16.40;99.90
37158;DHT22;23050;51.776;22.638;2023-09-19T05:07:04;16.40;99.90
37158;DHT22;23050;51.776;22.638;2023-09-19T05:09:29;16.50;99.90
37158;DHT22;23050;51.776;22.638;2023-09-19T05:11:55;16.50;99.90
37158;DHT22;23050;51.776;22.638;2023-09-19T05:14:22;16.50;99.90
37158;DHT22;23050;51.776;22.638;2023-09-19T05:16:48;16.60;99.90
37158;DHT22;23050;51.776;22.638;2023-09-19T05:19:14;16.70;99.90
37158;DHT22;23050;51.776;22.638;2023-09-19T05:21:39;17.00;99.90
37158;DHT22;23050;51.776;22.638;2023-09-19T05:24:05;17.10;99.90
37158;DHT22;23050;51.776;22.638;2023-09-19T05:26:34;17.20;99.90
37158;DHT22;23050;51.776;22.638;2023-09-19T05:29:00;17.30;99.90
37158;DHT22;23050;51.776;22.638;2023-09-19T05:31:27;17.40;99.90
37158;DHT22;23050;51.776;22.638;2023-09-19T05:33:53;17.40;99.90
37158;DHT22;23050;51.776;22.638;2023-09-19T05:36:20;17.50;99.90
37158;DHT22;23050;51.776;22.638;2023-09-19T05:38:46;17.50;99.90
37158;DHT22;23050;51.776;22.638;2023-09-19T05:41:15;17.50;99.90
37158;DHT22;23050;51.776;22.638;2023-09-19T05:43:41;17.40;99.90
37158;DHT22;23050;51.776;22.638;2023-09-19T05:46:07;17.40;99.90
37158;DHT22;23050;51.776;22.638;2023-09-19T05:48:33;17.70;99.90
37158;DHT22;23050;51.776;22.638;2023-09-19T05:50:59;17.90;99.90
37158;DHT22;23050;51.776;22.638;2023-09-19T05:53:27;18.20;99.90
37158;DHT22;23050;51.776;22.638;2023-09-19T05:55:52;18.70;99.90
37158;DHT22;23050;51.776;22.638;2023-09-19T05:58:19;19.00;99.90
37158;DHT22;23050;51.776;22.638;2023-09-19T06:00:45;19.30;99.90
37158;DHT22;23050;51.776;22.638;2023-09-19T06:03:13;19.50;99.90
37158;DHT22;23050;51.776;22.638;2023-09-19T06:05:39;19.60;99.90
37158;DHT22;23050;51.776;22.638;2023-09-19T06:08:06;19.70;98.40
37158;DHT22;23050;51.776;22.638;2023-09-19T06:10:33;20.20;95.40
37158;DHT22;23050;51.776;22.638;2023-09-19T06:13:01;20.70;87.00
37158;DHT22;23050;51.776;22.638;2023-09-19T06:15:29;21.50;72.50
37158;DHT22;23050;51.776;22.638;2023-09-19T06:17:58;21.60;55.00
37158;DHT22;23050;51.776;22.638;2023-09-19T06:20:30;21.30;57.50
37158;DHT22;23050;51.776;22.638;2023-09-19T06:22:56;21.10;68.00
37158;DHT22;23050;51.776;22.638;2023-09-19T06:25:22;21.20;73.40
37158;DHT22;23050;51.776;22.638;2023-09-19T06:27:49;21.10;69.60
37158;DHT22;23050;51.776;22.638;2023-09-19T06:30:17;20.70;80.50
37158;DHT22;23050;51.776;22.638;2023-09-19T06:32:44;20.70;84.70
37158;DHT22;23050;51.776;22.638;2023-09-19T06:35:14;20.50;84.50
37158;DHT22;23050;51.776;22.638;2023-09-19T06:37:41;20.60;83.90
37158;DHT22;23050;51.776;22.638;2023-09-19T06:40:09;20.70;83.50
37158;DHT22;23050;51.776;22.638;2023-09-19T06:42:42;21.10;75.90
37158;DHT22;23050;51.776;22.638;2023-09-19T06:45:08;21.60;67.90
37158;DHT22;23050;51.776;22.638;2023-09-19T06:47:37;21.90;62.20
37158;DHT22;23050;51.776;22.638;2023-09-19T06:50:02;22.50;46.30
37158;DHT22;23050;51.776;22.638;2023-09-19T06:52:29;22.60;34.60
37158;DHT22;23050;51.776;22.638;2023-09-19T06:54:55;22.80;31.60
37158;DHT22;23050;51.776;22.638;2023-09-19T06:57:21;22.90;23.10
37158;DHT22;23050;51.776;22.638;2023-09-19T06:59:47;22.80;28.10
37158;DHT22;23050;51.776;22.638;2023-09-19T07:02:13;22.60;26.90
37158;DHT22;23050;51.776;22.638;2023-09-19T07:04:39;22.60;31.60
37158;DHT22;23050;51.776;22.638;2023-09-19T07:07:04;22.50;27.60
37158;DHT22;23050;51.776;22.638;2023-09-19T07:09:30;22.70;30.70
37158;DHT22;23050;51.776;22.638;2023-09-19T07:11:57;22.80;23.60
37158;DHT22;23050;51.776;22.638;2023-09-19T07:14:22;23.20;15.40
37158;DHT22;23050;51.776;22.638;2023-09-19T07:16:48;24.30;1.00
37158;DHT22;23050;51.776;22.638;2023-09-19T07:19:14;25.50;1.00
37158;DHT22;23050;51.776;22.638;2023-09-19T07:21:40;26.10;1.00
37158;DHT22;23050;51.776;22.638;2023-09-19T07:24:07;25.60;1.00
37158;DHT22;23050;51.776;22.638;2023-09-19T07:26:33;25.00;1.00
37158;DHT22;23050;51.776;22.638;2023-09-19T07:28:59;24.40;1.00
37158;DHT22;23050;51.776;22.638;2023-09-19T07:31:25;23.90;1.00
37158;DHT22;23050;51.776;22.638;2023-09-19T07:33:52;23.80;1.00
37158;DHT22;23050;51.776;22.638;2023-09-19T07:36:18;23.70;1.00
37158;DHT22;23050;51.776;22.638;2023-09-19T07:38:45;23.30;1.00
37158;DHT22;23050;51.776;22.638;2023-09-19T07:41:10;23.10;1.00
37158;DHT22;23050;51.776;22.638;2023-09-19T07:43:36;23.00;1.00
37158;DHT22;23050;51.776;22.638;2023-09-19T07:46:07;22.80;1.00
37158;DHT22;23050;51.776;22.638;2023-09-19T07:48:37;22.60;1.00
37158;DHT22;23050;51.776;22.638;2023-09-19T07:51:07;22.60;9.80
37158;DHT22;23050;51.776;22.638;2023-09-19T07:53:34;22.70;10.80
37158;DHT22;23050;51.776;22.638;2023-09-19T07:56:09;22.80;1.00
37158;DHT22;23050;51.776;22.638;2023-09-19T07:58:35;22.80;1.00
37158;DHT22;23050;51.776;22.638;2023-09-19T08:01:07;22.80;1.00
37158;DHT22;23050;51.776;22.638;2023-09-19T08:03:36;22.80;1.00
37158;DHT22;23050;51.776;22.638;2023-09-19T08:06:09;23.10;1.00
37158;DHT22;23050;51.776;22.638;2023-09-19T08:08:35;23.40;1.00
37158;DHT22;23050;51.776;22.638;2023-09-19T08:11:05;23.50;1.00
37158;DHT22;23050;51.776;22.638;2023-09-19T08:13:39;23.40;1.00
37158;DHT22;23050;51.776;22.638;2023-09-19T08:16:15;23.50;1.00
37158;DHT22;23050;51.776;22.638;2023-09-19T08:18:41;23.60;1.00
37158;DHT22;23050;51.776;22.638;2023-09-19T08:21:07;23.70;1.00
37158;DHT22;23050;51.776;22.638;2023-09-19T08:23:37;23.40;1.00
37158;DHT22;23050;51.776;22.638;2023-09-19T08:26:03;23.30;1.00
37158;DHT22;23050;51.776;22.638;2023-09-19T08:28:32;23.30;1.00
37158;DHT22;23050;51.776;22.638;2023-09-19T08:31:04;23.30;1.00
37158;DHT22;23050;51.776;22.638;2023-09-19T08:33:32;23.20;1.00
37158;DHT22;23050;51.776;22.638;2023-09-19T08:35:58;23.00;1.00
37158;DHT22;23050;51.776;22.638;2023-09-19T08:38:23;22.60;1.00
37158;DHT22;23050;51.776;22.638;2023-09-19T08:40:49;22.30;4.00
37158;DHT22;23050;51.776;22.638;2023-09-19T08:43:15;22.20;7.90
37158;DHT22;23050;51.776;22.638;2023-09-19T08:45:41;22.20;12.70
37158;DHT22;23050;51.776;22.638;2023-09-19T08:48:26;22.30;14.60
37158;DHT22;23050;51.776;22.638;2023-09-19T08:51:03;22.30;7.20
37158;DHT22;23050;51.776;22.638;2023-09-19T08:53:51;22.20;7.20
37158;DHT22;23050;51.776;22.638;2023-09-19T08:56:18;22.20;9.00
37158;DHT22;23050;51.776;22.638;2023-09-19T08:58:53;22.30;9.40
37158;DHT22;23050;51.776;22.638;2023-09-19T09:01:21;22.30;8.60
37158;DHT22;23050;51.776;22.638;2023-09-19T09:03:56;22.30;8.50
37158;DHT22;23050;51.776;22.638;2023-09-19T09:06:23;22.30;8.70
37158;DHT22;23050;51.776;22.638;2023-09-19T09:08:52;22.40;5.40
37158;DHT22;23050;51.776;22.638;2023-09-19T09:11:18;22.40;5.50
37158;DHT22;23050;51.776;22.638;2023-09-19T09:13:50;22.40;4.30
37158;DHT22;23050;51.776;22.638;2023-09-19T09:16:16;22.40;6.60
37158;DHT22;23050;51.776;22.638;2023-09-19T09:18:46;22.30;6.60
37158;DHT22;23050;51.776;22.638;2023-09-19T09:21:12;22.20;5.50
37158;DHT22;23050;51.776;22.638;2023-09-19T09:23:40;22.00;13.70
37158;DHT22;23050;51.776;22.638;2023-09-19T09:26:05;21.80;15.30
37158;DHT22;23050;51.776;22.638;2023-09-19T09:28:33;21.70;21.40
37158;DHT22;23050;51.776;22.638;2023-09-19T09:31:00;21.60;27.30
37158;DHT22;23050;51.776;22.638;2023-09-19T09:33:28;21.50;29.70
37158;DHT22;23050;51.776;22.638;2023-09-19T09:35:55;21.30;30.20
37158;DHT22;23050;51.776;22.638;2023-09-19T09:38:30;21.10;40.00
37158;DHT22;23050;51.776;22.638;2023-09-19T09:41:09;21.00;50.40
37158;DHT22;23050;51.776;22.638;2023-09-19T09:43:36;20.80;57.10
37158;DHT22;23050;51.776;22.638;2023-09-19T09:46:20;20.70;68.50
37158;DHT22;23050;51.776;22.638;2023-09-19T09:48:56;20.40;78.90
37158;DHT22;23050;51.776;22.638;2023-09-19T09:51:48;20.30;89.50
37158;DHT22;23050;51.776;22.638;2023-09-19T09:54:24;20.20;89.80
37158;DHT22;23050;51.776;22.638;2023-09-19T09:57:00;20.10;90.50
37158;DHT22;23050;51.776;22.638;2023-09-19T09:59:46;20.00;90.60
37158;DHT22;23050;51.776;22.638;2023-09-19T10:02:14;20.00;90.10
37158;DHT22;23050;51.776;22.638;2023-09-19T10:04:48;20.10;90.50
37158;DHT22;23050;51.776;22.638;2023-09-19T10:07:32;20.10;90.10
37158;DHT22;23050;51.776;22.638;2023-09-19T10:10:05;20.20;92.70
37158;DHT22;23050;51.776;22.638;2023-09-19T10:12:47;20.20;93.40
37158;DHT22;23050;51.776;22.638;2023-09-19T10:15:17;20.10;95.60
37158;DHT22;23050;51.776;22.638;2023-09-19T10:17:46;20.00;95.90
37158;DHT22;23050;51.776;22.638;2023-09-19T10:20:16;19.90;98.90
37158;DHT22;23050;51.776;22.638;2023-09-19T10:23:10;19.90;99.90
37158;DHT22;23050;51.776;22.638;2023-09-19T10:25:38;19.80;99.50
37158;DHT22;23050;51.776;22.638;2023-09-19T10:28:06;19.80;99.90
37158;DHT22;23050;51.776;22.638;2023-09-19T10:30:37;19.70;99.90
37158;DHT22;23050;51.776;22.638;2023-09-19T10:33:10;19.60;99.90
37158;DHT22;23050;51.776;22.638;2023-09-19T10:35:39;19.40;99.90
37158;DHT22;23050;51.776;22.638;2023-09-19T10:38:10;19.20;99.90
37158;DHT22;23050;51.776;22.638;2023-09-19T10:40:37;19.00;99.90
37158;DHT22;23050;51.776;22.638;2023-09-19T10:43:06;18.90;99.90
37158;DHT22;23050;51.776;22.638;2023-09-19T10:45:34;18.70;99.90
37158;DHT22;23050;51.776;22.638;2023-09-19T10:48:10;18.60;99.90
37158;DHT22;23050;51.776;22.638;2023-09-19T10:50:44;18.50;99.90
37158;DHT22;23050;51.776;22.638;2023-09-19T10:53:12;18.50;99.90
37158;DHT22;23050;51.776;22.638;2023-09-19T10:55:40;18.50;99.90
37158;DHT22;23050;51.776;22.638;2023-09-19T10:58:07;18.60;99.90
37158;DHT22;23050;51.776;22.638;2023-09-19T11:00:53;18.50;99.90
37158;DHT22;23050;51.776;22.638;2023-09-19T11:03:21;18.50;99.90
37158;DHT22;23050;51.776;22.638;2023-09-19T11:06:05;18.40;99.90
37158;DHT22;23050;51.776;22.638;2023-09-19T11:09:04;18.40;99.90
37158;DHT22;23050;51.776;22.638;2023-09-19T11:11:51;18.50;99.90
37158;DHT22;23050;51.776;22.638;2023-09-19T11:30:48;18.60;99.90
37158;DHT22;23050;51.776;22.638;2023-09-19T11:36:11;18.80;99.90
37158;DHT22;23050;51.776;22.638;2023-09-19T11:43:52;18.90;99.90
37158;DHT22;23050;51.776;22.638;2023-09-19T11:49:13;19.00;99.90
37158;DHT22;23050;51.776;22.638;2023-09-19T11:51:45;19.10;99.90
37158;DHT22;23050;51.776;22.638;2023-09-19T11:54:13;19.20;99.90
37158;DHT22;23050;51.776;22.638;2023-09-19T11:56:51;19.30;99.90
37158;DHT22;23050;51.776;22.638;2023-09-19T11:59:24;19.30;99.90
37158;DHT22;23050;51.776;22.638;2023-09-19T12:02:10;19.40;99.90
37158;DHT22;23050;51.776;22.638;2023-09-19T12:05:09;19.40;99.90
37158;DHT22;23050;51.776;22.638;2023-09-19T12:07:43;19.40;99.90
37158;DHT22;23050;51.776;22.638;2023-09-19T12:10:11;19.30;99.90
37158;DHT22;23050;51.776;22.638;2023-09-19T12:12:47;19.30;99.90
37158;DHT22;23050;51.776;22.638;2023-09-19T12:15:13;19.20;99.90
37158;DHT22;23050;51.776;22.638;2023-09-19T12:17:40;19.10;99.90
37158;DHT22;23050;51.776;22.638;2023-09-19T12:20:08;18.90;99.90
37158;DHT22;23050;51.776;22.638;2023-09-19T12:22:43;18.90;99.90
37158;DHT22;23050;51.776;22.638;2023-09-19T12:25:09;18.80;99.90
37158;DHT22;23050;51.776;22.638;2023-09-19T12:27:46;18.70;99.90
37158;DHT22;23050;51.776;22.638;2023-09-19T12:30:13;18.60;99.90
37158;DHT22;23050;51.776;22.638;2023-09-19T12:32:46;18.60;99.90
37158;DHT22;23050;51.776;22.638;2023-09-19T12:35:31;18.50;99.90
37158;DHT22;23050;51.776;22.638;2023-09-19T12:38:00;18.30;99.90
37158;DHT22;23050;51.776;22.638;2023-09-19T12:40:26;18.20;99.90
37158;DHT22;23050;51.776;22.638;2023-09-19T12:42:58;18.10;99.90
37158;DHT22;23050;51.776;22.638;2023-09-19T12:45:24;18.00;99.90
37158;DHT22;23050;51.776;22.638;2023-09-19T12:48:18;17.90;99.90
37158;DHT22;23050;51.776;22.638;2023-09-19T12:51:11;17.80;99.90
37158;DHT22;23050;51.776;22.638;2023-09-19T12:53:42;17.90;99.90
37158;DHT22;23050;51.776;22.638;2023-09-19T12:56:13;17.80;99.90
37158;DHT22;23050;51.776;22.638;2023-09-19T12:58:58;17.80;99.90
37158;DHT22;23050;51.776;22.638;2023-09-19T13:01:27;17.70;99.90
37158;DHT22;23050;51.776;22.638;2023-09-19T13:07:00;17.70;99.90
37158;DHT22;23050;51.776;22.638;2023-09-19T13:09:27;17.70;99.90
37158;DHT22;23050;51.776;22.638;2023-09-19T13:12:49;17.60;99.90
37158;DHT22;23050;51.776;22.638;2023-09-19T13:15:11;17.60;99.90
37158;DHT22;23050;51.776;22.638;2023-09-19T13:17:48;17.60;99.90
37158;DHT22;23050;51.776;22.638;2023-09-19T13:20:25;17.60;99.90
37158;DHT22;23050;51.776;22.638;2023-09-19T13:22:55;17.60;99.90
37158;DHT22;23050;51.776;22.638;2023-09-19T13:25:25;17.50;99.90
37158;DHT22;23050;51.776;22.638;2023-09-19T13:28:05;17.50;99.90
37158;DHT22;23050;51.776;22.638;2023-09-19T13:30:30;17.50;99.90
37158;DHT22;23050;51.776;22.638;2023-09-19T13:33:06;17.40;99.90
37158;DHT22;23050;51.776;22.638;2023-09-19T13:35:32;17.40;99.90
37158;DHT22;23050;51.776;22.638;2023-09-19T13:37:58;17.40;99.90
37158;DHT22;23050;51.776;22.638;2023-09-19T13:40:32;17.40;99.90
37158;DHT22;23050;51.776;22.638;2023-09-19T13:43:01;17.40;99.90
37158;DHT22;23050;51.776;22.638;2023-09-19T13:45:47;17.40;99.90
37158;DHT22;23050;51.776;22.638;2023-09-19T13:48:13;17.40;99.90
37158;DHT22;23050;51.776;22.638;2023-09-19T13:50:38;17.40;99.90
37158;DHT22;23050;51.776;22.638;2023-09-19T13:53:08;17.40;99.90
37158;DHT22;23050;51.776;22.638;2023-09-19T13:55:33;17.40;99.90
37158;DHT22;23050;51.776;22.638;2023-09-19T13:57:59;17.40;99.90
37158;DHT22;23050;51.776;22.638;2023-09-19T14:00:25;17.40;99.90
37158;DHT22;23050;51.776;22.638;2023-09-19T14:02:52;17.40;99.90
37158;DHT22;23050;51.776;22.638;2023-09-19T14:08:42;17.40;99.90
37158;DHT22;23050;51.776;22.638;2023-09-19T14:11:08;17.40;99.90
37158;DHT22;23050;51.776;22.638;2023-09-19T14:13:34;17.40;99.90
37158;DHT22;23050;51.776;22.638;2023-09-19T14:16:07;17.40;99.90
37158;DHT22;23050;51.776;22.638;2023-09-19T14:18:34;17.40;99.90
37158;DHT22;23050;51.776;22.638;2023-09-19T14:21:06;17.30;99.90
37158;DHT22;23050;51.776;22.638;2023-09-19T14:23:40;17.40;99.90
37158;DHT22;23050;51.776;22.638;2023-09-19T14:26:07;17.40;99.90
37158;DHT22;23050;51.776;22.638;2023-09-19T14:28:32;17.40;99.90
37158;DHT22;23050;51.776;22.638;2023-09-19T14:31:06;17.40;99.90
37158;DHT22;23050;51.776;22.638;2023-09-19T14:33:32;17.40;99.90
37158;DHT22;23050;51.776;22.638;2023-09-19T14:35:57;17.40;99.90
37158;DHT22;23050;51.776;22.638;2023-09-19T14:38:23;17.40;99.90
37158;DHT22;23050;51.776;22.638;2023-09-19T14:40:49;17.40;99.90
37158;DHT22;23050;51.776;22.638;2023-09-19T14:43:23;17.40;99.90
37158;DHT22;23050;51.776;22.638;2023-09-19T14:45:49;17.50;99.90
37158;DHT22;23050;51.776;22.638;2023-09-19T14:48:15;17.50;99.90
37158;DHT22;23050;51.776;22.638;2023-09-19T14:50:40;17.60;99.90
37158;DHT22;23050;51.776;22.638;2023-09-19T14:53:06;17.60;99.90
37158;DHT22;23050;51.776;22.638;2023-09-19T14:55:37;17.60;99.90
37158;DHT22;23050;51.776;22.638;2023-09-19T14:58:06;17.60;99.90
37158;DHT22;23050;51.776;22.638;2023-09-19T15:00:33;17.50;99.90
37158;DHT22;23050;51.776;22.638;2023-09-19T15:02:59;17.50;99.90
37158;DHT22;23050;51.776;22.638;2023-09-19T15:05:25;17.60;99.90
37158;DHT22;23050;51.776;22.638;2023-09-19T15:07:50;17.50;99.90
37158;DHT22;23050;51.776;22.638;2023-09-19T15:10:16;17.50;99.90
37158;DHT22;23050;51.776;22.638;2023-09-19T15:12:43;17.50;99.90
37158;DHT22;23050;51.776;22.638;2023-09-19T15:15:09;17.50;99.90
37158;DHT22;23050;51.776;22.638;2023-09-19T15:17:36;17.50;99.90
37158;DHT22;23050;51.776;22.638;2023-09-19T15:20:02;17.50;99.90
37158;DHT22;23050;51.776;22.638;2023-09-19T15:22:32;17.50;99.90
37158;DHT22;23050;51.776;22.638;2023-09-19T15:24:58;17.50;99.90
37158;DHT22;23050;51.776;22.638;2023-09-19T15:27:24;17.50;99.90
37158;DHT22;23050;51.776;22.638;2023-09-19T15:29:50;17.50;99.90
37158;DHT22;23050;51.776;22.638;2023-09-19T15:32:16;17.50;99.90
37158;DHT22;23050;51.776;22.638;2023-09-19T15:34:41;17.50;99.90
37158;DHT22;23050;51.776;22.638;2023-09-19T15:37:07;17.50;99.90
37158;DHT22;23050;51.776;22.638;2023-09-19T15:39:32;17.60;99.90
37158;DHT22;23050;51.776;22.638;2023-09-19T15:42:02;17.60;99.90
37158;DHT22;23050;51.776;22.638;2023-09-19T15:44:28;17.60;99.90
37158;DHT22;23050;51.776;22.638;2023-09-19T15:46:54;17.60;99.90
37158;DHT22;23050;51.776;22.638;2023-09-19T15:49:21;17.60;99.90
37158;DHT22;23050;51.776;22.638;2023-09-19T15:51:48;17.70;99.90
37158;DHT22;23050;51.776;22.638;2023-09-19T15:54:15;17.70;99.90
37158;DHT22;23050;51.776;22.638;2023-09-19T15:56:41;17.70;99.90
37158;DHT22;23050;51.776;22.638;2023-09-19T15:59:07;17.70;99.90
37158;DHT22;23050;51.776;22.638;2023-09-19T16:01:34;17.70;99.90
37158;DHT22;23050;51.776;22.638;2023-09-19T16:04:00;17.60;99.90
37158;DHT22;23050;51.776;22.638;2023-09-19T16:06:27;17.60;99.90
37158;DHT22;23050;51.776;22.638;2023-09-19T16:08:55;17.50;99.90
37158;DHT22;23050;51.776;22.638;2023-09-19T16:11:22;17.50;99.90
37158;DHT22;23050;51.776;22.638;2023-09-19T16:13:51;17.50;99.90
37158;DHT22;23050;51.776;22.638;2023-09-19T16:16:19;17.40;99.90
37158;DHT22;23050;51.776;22.638;2023-09-19T16:18:56;17.40;99.90
37158;DHT22;23050;51.776;22.638;2023-09-19T16:21:25;17.40;99.90